sensor_id;sensor_type;location;lat;lon;timestamp;temperature;humidity
64226;DHT22;50545;56.064;26.178;2022-07-21T00:00:25;13.50;99.90
64226;DHT22;50545;56.064;26.178;2022-07-21T00:02:52;13.50;99.90
64226;DHT22;50545;56.064;26.178;2022-07-21T00:05:21;13.40;99.90
64226;DHT22;50545;56.064;26.178;2022-07-21T00:07:49;13.40;99.90
64226;DHT22;50545;56.064;26.178;2022-07-21T00:10:17;13.40;99.90
64226;DHT22;50545;56.064;26.178;2022-07-21T00:12:45;13.30;99.90
64226;DHT22;50545;56.064;26.178;2022-07-21T00:15:15;13.40;99.90
64226;DHT22;50545;56.064;26.178;2022-07-21T00:17:43;13.30;99.90
64226;DHT22;50545;56.064;26.178;2022-07-21T00:20:12;13.30;99.90
64226;DHT22;50545;56.064;26.178;2022-07-21T00:22:39;13.30;99.90
64226;DHT22;50545;56.064;26.178;2022-07-21T00:25:08;13.30;99.90
64226;DHT22;50545;56.064;26.178;2022-07-21T00:27:35;13.30;99.90
64226;DHT22;50545;56.064;26.178;2022-07-21T00:30:07;13.20;99.90
64226;DHT22;50545;56.064;26.178;2022-07-21T00:32:36;13.30;99.90
64226;DHT22;50545;56.064;26.178;2022-07-21T00:35:05;13.30;99.90
64226;DHT22;50545;56.064;26.178;2022-07-21T00:37:32;13.20;99.90
64226;DHT22;50545;56.064;26.178;2022-07-21T00:40:00;13.30;99.90
64226;DHT22;50545;56.064;26.178;2022-07-21T00:42:31;13.30;99.90
64226;DHT22;50545;56.064;26.178;2022-07-21T00:45:00;13.30;99.90
64226;DHT22;50545;56.064;26.178;2022-07-21T00:47:29;13.20;99.90
64226;DHT22;50545;56.064;26.178;2022-07-21T00:49:59;13.30;99.90
64226;DHT22;50545;56.064;26.178;2022-07-21T00:52:27;13.20;99.90
64226;DHT22;50545;56.064;26.178;2022-07-21T00:54:54;13.20;99.90
64226;DHT22;50545;56.064;26.178;2022-07-21T00:57:22;13.20;99.90
64226;DHT22;50545;56.064;26.178;2022-07-21T00:59:50;13.20;99.90
64226;DHT22;50545;56.064;26.178;2022-07-21T01:05:34;13.20;99.90
64226;DHT22;50545;56.064;26.178;2022-07-21T01:08:02;13.20;99.90
64226;DHT22;50545;56.064;26.178;2022-07-21T01:10:30;13.10;99.90
64226;DHT22;50545;56.064;26.178;2022-07-21T01:12:59;13.10;99.90
64226;DHT22;50545;56.064;26.178;2022-07-21T01:15:28;13.10;99.90
64226;DHT22;50545;56.064;26.178;2022-07-21T01:17:55;13.10;99.90
64226;DHT22;50545;56.064;26.178;2022-07-21T01:20:23;13.10;99.90
64226;DHT22;50545;56.064;26.178;2022-07-21T01:22:54;13.10;99.90
64226;DHT22;50545;56.064;26.178;2022-07-21T01:25:23;13.10;99.90
64226;DHT22;50545;56.064;26.178;2022-07-21T01:27:51;13.10;99.90
64226;DHT22;50545;56.064;26.178;2022-07-21T01:30:18;13.10;99.90
64226;DHT22;50545;56.064;26.178;2022-07-21T01:32:46;13.10;99.90
64226;DHT22;50545;56.064;26.178;2022-07-21T01:35:15;13.10;99.90
64226;DHT22;50545;56.064;26.178;2022-07-21T01:37:45;13.10;99.90
64226;DHT22;50545;56.064;26.178;2022-07-21T01:40:13;13.10;99.90
64226;DHT22;50545;56.064;26.178;2022-07-21T01:43:00;13.10;99.90
64226;DHT22;50545;56.064;26.178;2022-07-21T01:45:27;13.10;99.90
64226;DHT22;50545;56.064;26.178;2022-07-21T01:47:55;13.10;99.90
64226;DHT22;50545;56.064;26.178;2022-07-21T01:50:23;13.10;99.90
64226;DHT22;50545;56.064;26.178;2022-07-21T01:52:57;13.10;99.90
64226;DHT22;50545;56.064;26.178;2022-07-21T01:55:26;13.00;99.90
64226;DHT22;50545;56.064;26.178;2022-07-21T01:57:55;13.00;99.90
64226;DHT22;50545;56.064;26.178;2022-07-21T02:00:23;13.00;99.90
64226;DHT22;50545;56.064;26.178;2022-07-21T02:02:51;13.00;99.90
64226;DHT22;50545;56.064;26.178;2022-07-21T02:05:18;13.00;99.90
64226;DHT22;50545;56.064;26.178;2022-07-21T02:07:45;13.00;99.90
64226;DHT22;50545;56.064;26.178;2022-07-21T02:10:13;13.00;99.90
64226;DHT22;50545;56.064;26.178;2022-07-21T02:12:40;13.00;99.90
64226;DHT22;50545;56.064;26.178;2022-07-21T02:15:08;13.00;99.90
64226;DHT22;50545;56.064;26.178;2022-07-21T02:17:35;13.00;99.90
64226;DHT22;50545;56.064;26.178;2022-07-21T02:20:03;13.00;99.90
64226;DHT22;50545;56.064;26.178;2022-07-21T02:22:30;13.00;99.90
64226;DHT22;50545;56.064;26.178;2022-07-21T02:24:58;13.10;99.90
64226;DHT22;50545;56.064;26.178;2022-07-21T02:27:25;13.10;99.90
64226;DHT22;50545;56.064;26.178;2022-07-21T02:29:52;13.10;99.90
64226;DHT22;50545;56.064;26.178;2022-07-21T02:32:19;13.10;99.90
64226;DHT22;50545;56.064;26.178;2022-07-21T02:34:47;13.10;99.90
64226;DHT22;50545;56.064;26.178;2022-07-21T02:37:14;13.10;99.90
64226;DHT22;50545;56.064;26.178;2022-07-21T02:39:41;13.10;99.90
64226;DHT22;50545;56.064;26.178;2022-07-21T02:42:10;13.10;99.90
64226;DHT22;50545;56.064;26.178;2022-07-21T02:44:37;13.20;99.90
64226;DHT22;50545;56.064;26.178;2022-07-21T02:47:05;13.20;99.90
64226;DHT22;50545;56.064;26.178;2022-07-21T02:49:32;13.20;99.90
64226;DHT22;50545;56.064;26.178;2022-07-21T02:51:59;13.30;99.90
64226;DHT22;50545;56.064;26.178;2022-07-21T02:54:27;13.30;99.90
64226;DHT22;50545;56.064;26.178;2022-07-21T02:56:54;13.40;99.90
64226;DHT22;50545;56.064;26.178;2022-07-21T02:59:22;13.40;99.90
64226;DHT22;50545;56.064;26.178;2022-07-21T03:01:49;13.40;99.90
64226;DHT22;50545;56.064;26.178;2022-07-21T03:04:16;13.50;99.90
64226;DHT22;50545;56.064;26.178;2022-07-21T03:06:44;13.50;99.90
64226;DHT22;50545;56.064;26.178;2022-07-21T03:09:11;13.50;99.90
64226;DHT22;50545;56.064;26.178;2022-07-21T03:11:38;13.60;99.90
64226;DHT22;50545;56.064;26.178;2022-07-21T03:14:06;13.60;99.90
64226;DHT22;50545;56.064;26.178;2022-07-21T03:16:33;13.60;99.90
64226;DHT22;50545;56.064;26.178;2022-07-21T03:19:00;13.70;99.90
64226;DHT22;50545;56.064;26.178;2022-07-21T03:21:28;13.70;99.90
64226;DHT22;50545;56.064;26.178;2022-07-21T03:23:55;13.80;99.90
64226;DHT22;50545;56.064;26.178;2022-07-21T03:26:22;13.80;99.90
64226;DHT22;50545;56.064;26.178;2022-07-21T03:28:50;13.90;99.90
64226;DHT22;50545;56.064;26.178;2022-07-21T03:31:18;13.90;99.90
64226;DHT22;50545;56.064;26.178;2022-07-21T03:33:45;14.00;99.90
64226;DHT22;50545;56.064;26.178;2022-07-21T03:36:12;14.00;99.90
64226;DHT22;50545;56.064;26.178;2022-07-21T03:38:40;14.10;99.90
64226;DHT22;50545;56.064;26.178;2022-07-21T03:41:07;14.10;99.90
64226;DHT22;50545;56.064;26.178;2022-07-21T03:43:39;14.20;99.90
64226;DHT22;50545;56.064;26.178;2022-07-21T03:46:06;14.30;99.90
64226;DHT22;50545;56.064;26.178;2022-07-21T03:48:34;14.40;99.90
64226;DHT22;50545;56.064;26.178;2022-07-21T03:51:01;14.40;99.90
64226;DHT22;50545;56.064;26.178;2022-07-21T03:53:28;14.40;99.90
64226;DHT22;50545;56.064;26.178;2022-07-21T03:55:55;14.50;99.90
64226;DHT22;50545;56.064;26.178;2022-07-21T03:58:23;14.60;99.90
64226;DHT22;50545;56.064;26.178;2022-07-21T04:00:50;14.70;99.90
64226;DHT22;50545;56.064;26.178;2022-07-21T04:03:18;14.70;99.90
64226;DHT22;50545;56.064;26.178;2022-07-21T04:05:45;14.80;99.90
64226;DHT22;50545;56.064;26.178;2022-07-21T04:08:12;14.90;99.90
64226;DHT22;50545;56.064;26.178;2022-07-21T04:10:42;14.90;99.90
64226;DHT22;50545;56.064;26.178;2022-07-21T04:13:13;15.00;99.90
64226;DHT22;50545;56.064;26.178;2022-07-21T04:15:41;15.10;99.90
64226;DHT22;50545;56.064;26.178;2022-07-21T04:18:09;15.10;99.90
64226;DHT22;50545;56.064;26.178;2022-07-21T04:20:36;15.20;99.90
64226;DHT22;50545;56.064;26.178;2022-07-21T04:23:04;15.30;99.90
64226;DHT22;50545;56.064;26.178;2022-07-21T04:25:32;15.30;99.90
64226;DHT22;50545;56.064;26.178;2022-07-21T04:27:59;15.40;99.90
64226;DHT22;50545;56.064;26.178;2022-07-21T04:30:27;15.50;99.90
64226;DHT22;50545;56.064;26.178;2022-07-21T04:32:54;15.60;99.90
64226;DHT22;50545;56.064;26.178;2022-07-21T04:35:22;15.60;99.90
64226;DHT22;50545;56.064;26.178;2022-07-21T04:37:49;15.70;99.90
64226;DHT22;50545;56.064;26.178;2022-07-21T04:40:17;15.70;99.90
64226;DHT22;50545;56.064;26.178;2022-07-21T04:42:45;15.80;99.90
64226;DHT22;50545;56.064;26.178;2022-07-21T04:45:15;15.90;99.90
64226;DHT22;50545;56.064;26.178;2022-07-21T04:47:51;15.90;99.90
64226;DHT22;50545;56.064;26.178;2022-07-21T04:50:21;16.00;99.90
64226;DHT22;50545;56.064;26.178;2022-07-21T04:52:49;16.10;99.90
64226;DHT22;50545;56.064;26.178;2022-07-21T04:55:18;16.10;99.90
64226;DHT22;50545;56.064;26.178;2022-07-21T04:57:48;16.20;99.90
64226;DHT22;50545;56.064;26.178;2022-07-21T05:00:18;16.30;99.90
64226;DHT22;50545;56.064;26.178;2022-07-21T05:02:46;16.30;99.90
64226;DHT22;50545;56.064;26.178;2022-07-21T05:05:14;16.40;99.90
64226;DHT22;50545;56.064;26.178;2022-07-21T05:07:41;16.50;99.90
64226;DHT22;50545;56.064;26.178;2022-07-21T05:10:12;16.50;99.90
64226;DHT22;50545;56.064;26.178;2022-07-21T05:12:40;16.60;99.90
64226;DHT22;50545;56.064;26.178;2022-07-21T05:15:08;16.60;99.90
64226;DHT22;50545;56.064;26.178;2022-07-21T05:17:39;16.70;99.90
64226;DHT22;50545;56.064;26.178;2022-07-21T05:20:08;16.70;99.90
64226;DHT22;50545;56.064;26.178;2022-07-21T05:22:36;16.80;99.90
64226;DHT22;50545;56.064;26.178;2022-07-21T05:25:04;16.90;99.90
64226;DHT22;50545;56.064;26.178;2022-07-21T05:27:32;16.90;99.90
64226;DHT22;50545;56.064;26.178;2022-07-21T05:29:59;17.00;99.90
64226;DHT22;50545;56.064;26.178;2022-07-21T05:32:27;17.00;99.90
64226;DHT22;50545;56.064;26.178;2022-07-21T05:34:54;17.10;99.90
64226;DHT22;50545;56.064;26.178;2022-07-21T05:37:22;17.20;99.90
64226;DHT22;50545;56.064;26.178;2022-07-21T05:39:49;17.30;99.90
64226;DHT22;50545;56.064;26.178;2022-07-21T05:42:16;17.40;99.90
64226;DHT22;50545;56.064;26.178;2022-07-21T05:44:44;17.50;99.90
64226;DHT22;50545;56.064;26.178;2022-07-21T05:47:12;17.50;99.90
64226;DHT22;50545;56.064;26.178;2022-07-21T05:49:39;17.60;99.90
64226;DHT22;50545;56.064;26.178;2022-07-21T05:52:06;17.70;99.90
64226;DHT22;50545;56.064;26.178;2022-07-21T05:54:33;17.70;99.90
64226;DHT22;50545;56.064;26.178;2022-07-21T05:57:03;17.80;99.90
64226;DHT22;50545;56.064;26.178;2022-07-21T05:59:31;17.90;99.90
64226;DHT22;50545;56.064;26.178;2022-07-21T06:01:59;18.00;99.90
64226;DHT22;50545;56.064;26.178;2022-07-21T06:04:27;18.10;99.90
64226;DHT22;50545;56.064;26.178;2022-07-21T06:06:55;18.20;99.90
64226;DHT22;50545;56.064;26.178;2022-07-21T06:09:22;18.30;99.90
64226;DHT22;50545;56.064;26.178;2022-07-21T06:11:52;18.40;99.90
64226;DHT22;50545;56.064;26.178;2022-07-21T06:14:19;18.50;99.90
64226;DHT22;50545;56.064;26.178;2022-07-21T06:16:47;18.60;99.90
64226;DHT22;50545;56.064;26.178;2022-07-21T06:19:15;18.70;99.90
64226;DHT22;50545;56.064;26.178;2022-07-21T06:21:42;18.80;99.90
64226;DHT22;50545;56.064;26.178;2022-07-21T06:24:12;18.80;99.90
64226;DHT22;50545;56.064;26.178;2022-07-21T06:26:40;19.00;99.90
64226;DHT22;50545;56.064;26.178;2022-07-21T06:29:07;19.10;96.90
64226;DHT22;50545;56.064;26.178;2022-07-21T06:31:34;19.20;89.40
64226;DHT22;50545;56.064;26.178;2022-07-21T06:34:02;19.30;97.00
64226;DHT22;50545;56.064;26.178;2022-07-21T06:36:30;19.40;92.10
64226;DHT22;50545;56.064;26.178;2022-07-21T06:38:57;19.50;94.70
64226;DHT22;50545;56.064;26.178;2022-07-21T06:41:24;19.60;94.30
64226;DHT22;50545;56.064;26.178;2022-07-21T06:43:51;19.70;91.40
64226;DHT22;50545;56.064;26.178;2022-07-21T06:46:19;19.80;82.80
64226;DHT22;50545;56.064;26.178;2022-07-21T06:48:47;19.90;90.30
64226;DHT22;50545;56.064;26.178;2022-07-21T06:51:14;20.00;98.60
64226;DHT22;50545;56.064;26.178;2022-07-21T06:53:41;20.10;80.00
64226;DHT22;50545;56.064;26.178;2022-07-21T06:56:09;20.20;80.50
64226;DHT22;50545;56.064;26.178;2022-07-21T06:58:36;20.30;78.60
64226;DHT22;50545;56.064;26.178;2022-07-21T07:01:06;20.40;81.60
64226;DHT22;50545;56.064;26.178;2022-07-21T07:03:35;20.50;78.00
64226;DHT22;50545;56.064;26.178;2022-07-21T07:06:04;20.60;79.60
64226;DHT22;50545;56.064;26.178;2022-07-21T07:08:32;20.70;80.00
64226;DHT22;50545;56.064;26.178;2022-07-21T07:10:59;20.70;74.90
64226;DHT22;50545;56.064;26.178;2022-07-21T07:13:27;20.80;74.30
64226;DHT22;50545;56.064;26.178;2022-07-21T07:16:14;20.90;77.30
64226;DHT22;50545;56.064;26.178;2022-07-21T07:18:41;21.00;72.90
64226;DHT22;50545;56.064;26.178;2022-07-21T07:21:09;21.10;73.10
64226;DHT22;50545;56.064;26.178;2022-07-21T07:23:38;21.20;70.60
64226;DHT22;50545;56.064;26.178;2022-07-21T07:26:07;21.30;75.90
64226;DHT22;50545;56.064;26.178;2022-07-21T07:28:35;21.30;71.80
64226;DHT22;50545;56.064;26.178;2022-07-21T07:31:02;21.40;69.70
64226;DHT22;50545;56.064;26.178;2022-07-21T07:33:29;21.50;70.30
64226;DHT22;50545;56.064;26.178;2022-07-21T07:35:57;21.60;69.90
64226;DHT22;50545;56.064;26.178;2022-07-21T07:38:24;21.60;69.00
64226;DHT22;50545;56.064;26.178;2022-07-21T07:40:52;21.70;68.30
64226;DHT22;50545;56.064;26.178;2022-07-21T07:43:19;21.70;67.60
64226;DHT22;50545;56.064;26.178;2022-07-21T07:45:47;21.70;67.60
64226;DHT22;50545;56.064;26.178;2022-07-21T07:48:14;21.80;66.30
64226;DHT22;50545;56.064;26.178;2022-07-21T07:50:42;22.00;67.10
64226;DHT22;50545;56.064;26.178;2022-07-21T07:53:09;22.00;63.80
64226;DHT22;50545;56.064;26.178;2022-07-21T07:55:36;22.00;63.30
64226;DHT22;50545;56.064;26.178;2022-07-21T07:58:03;22.10;63.80
64226;DHT22;50545;56.064;26.178;2022-07-21T08:00:31;22.20;62.40
64226;DHT22;50545;56.064;26.178;2022-07-21T08:03:21;22.20;64.20
64226;DHT22;50545;56.064;26.178;2022-07-21T08:05:48;22.30;66.10
64226;DHT22;50545;56.064;26.178;2022-07-21T08:08:16;22.40;63.50
64226;DHT22;50545;56.064;26.178;2022-07-21T08:10:44;22.40;62.80
64226;DHT22;50545;56.064;26.178;2022-07-21T08:13:15;22.50;62.90
64226;DHT22;50545;56.064;26.178;2022-07-21T08:15:44;22.60;61.80
64226;DHT22;50545;56.064;26.178;2022-07-21T08:18:12;22.80;61.70
64226;DHT22;50545;56.064;26.178;2022-07-21T08:20:40;22.80;60.40
64226;DHT22;50545;56.064;26.178;2022-07-21T08:23:07;22.80;59.40
64226;DHT22;50545;56.064;26.178;2022-07-21T08:25:36;22.80;59.00
64226;DHT22;50545;56.064;26.178;2022-07-21T08:28:04;22.90;61.90
64226;DHT22;50545;56.064;26.178;2022-07-21T08:30:31;22.80;61.70
64226;DHT22;50545;56.064;26.178;2022-07-21T08:33:00;22.90;59.40
64226;DHT22;50545;56.064;26.178;2022-07-21T08:35:27;22.90;58.00
64226;DHT22;50545;56.064;26.178;2022-07-21T08:38:00;22.90;58.10
64226;DHT22;50545;56.064;26.178;2022-07-21T08:40:31;23.00;58.30
64226;DHT22;50545;56.064;26.178;2022-07-21T08:42:59;23.10;57.40
64226;DHT22;50545;56.064;26.178;2022-07-21T08:45:27;23.20;61.00
64226;DHT22;50545;56.064;26.178;2022-07-21T08:47:57;23.30;60.70
64226;DHT22;50545;56.064;26.178;2022-07-21T08:50:30;23.40;59.00
64226;DHT22;50545;56.064;26.178;2022-07-21T08:52:58;23.50;59.40
64226;DHT22;50545;56.064;26.178;2022-07-21T08:55:31;23.50;60.00
64226;DHT22;50545;56.064;26.178;2022-07-21T08:57:59;23.60;60.40
64226;DHT22;50545;56.064;26.178;2022-07-21T09:00:33;23.80;60.80
64226;DHT22;50545;56.064;26.178;2022-07-21T09:03:14;23.80;58.20
64226;DHT22;50545;56.064;26.178;2022-07-21T09:05:43;23.80;57.10
64226;DHT22;50545;56.064;26.178;2022-07-21T09:08:36;23.60;58.10
64226;DHT22;50545;56.064;26.178;2022-07-21T09:13:40;23.70;58.70
64226;DHT22;50545;56.064;26.178;2022-07-21T09:16:09;23.70;58.20
64226;DHT22;50545;56.064;26.178;2022-07-21T09:18:50;23.70;59.70
64226;DHT22;50545;56.064;26.178;2022-07-21T09:21:19;23.80;60.60
64226;DHT22;50545;56.064;26.178;2022-07-21T09:23:46;23.80;58.40
64226;DHT22;50545;56.064;26.178;2022-07-21T09:26:13;23.80;60.40
64226;DHT22;50545;56.064;26.178;2022-07-21T09:28:41;23.80;62.20
64226;DHT22;50545;56.064;26.178;2022-07-21T09:31:11;23.90;62.30
64226;DHT22;50545;56.064;26.178;2022-07-21T09:33:43;24.00;64.60
64226;DHT22;50545;56.064;26.178;2022-07-21T09:36:19;24.20;61.10
64226;DHT22;50545;56.064;26.178;2022-07-21T09:38:54;24.40;62.40
64226;DHT22;50545;56.064;26.178;2022-07-21T09:41:26;24.50;61.50
64226;DHT22;50545;56.064;26.178;2022-07-21T09:43:55;24.60;59.10
64226;DHT22;50545;56.064;26.178;2022-07-21T09:46:25;24.60;60.70
64226;DHT22;50545;56.064;26.178;2022-07-21T09:48:56;24.70;59.30
64226;DHT22;50545;56.064;26.178;2022-07-21T09:51:43;24.80;59.60
64226;DHT22;50545;56.064;26.178;2022-07-21T09:54:12;24.90;59.30
64226;DHT22;50545;56.064;26.178;2022-07-21T09:56:42;25.00;59.10
64226;DHT22;50545;56.064;26.178;2022-07-21T09:59:11;24.90;59.00
64226;DHT22;50545;56.064;26.178;2022-07-21T10:01:39;24.90;60.00
64226;DHT22;50545;56.064;26.178;2022-07-21T10:04:07;24.90;61.50
64226;DHT22;50545;56.064;26.178;2022-07-21T10:06:36;24.90;60.00
64226;DHT22;50545;56.064;26.178;2022-07-21T10:09:06;25.00;58.40
64226;DHT22;50545;56.064;26.178;2022-07-21T10:11:35;25.10;57.70
64226;DHT22;50545;56.064;26.178;2022-07-21T10:14:05;25.30;57.60
64226;DHT22;50545;56.064;26.178;2022-07-21T10:16:35;25.40;56.90
64226;DHT22;50545;56.064;26.178;2022-07-21T10:24:59;25.40;56.50
64226;DHT22;50545;56.064;26.178;2022-07-21T10:27:28;25.40;56.90
64226;DHT22;50545;56.064;26.178;2022-07-21T10:30:15;25.50;55.20
64226;DHT22;50545;56.064;26.178;2022-07-21T10:32:49;25.70;61.40
64226;DHT22;50545;56.064;26.178;2022-07-21T10:35:31;25.80;57.50
64226;DHT22;50545;56.064;26.178;2022-07-21T10:38:02;26.10;58.40
64226;DHT22;50545;56.064;26.178;2022-07-21T10:45:41;26.00;56.70
64226;DHT22;50545;56.064;26.178;2022-07-21T10:51:10;26.20;57.90
64226;DHT22;50545;56.064;26.178;2022-07-21T10:53:38;26.30;58.60
64226;DHT22;50545;56.064;26.178;2022-07-21T10:56:06;26.20;58.00
64226;DHT22;50545;56.064;26.178;2022-07-21T10:58:39;26.20;56.40
64226;DHT22;50545;56.064;26.178;2022-07-21T11:01:22;26.10;55.10
64226;DHT22;50545;56.064;26.178;2022-07-21T11:04:12;26.00;56.80
64226;DHT22;50545;56.064;26.178;2022-07-21T11:06:40;26.10;58.20
64226;DHT22;50545;56.064;26.178;2022-07-21T11:09:15;26.30;58.90
64226;DHT22;50545;56.064;26.178;2022-07-21T11:14:19;26.50;56.40
64226;DHT22;50545;56.064;26.178;2022-07-21T11:22:01;26.30;56.30
64226;DHT22;50545;56.064;26.178;2022-07-21T11:24:28;26.30;57.50
64226;DHT22;50545;56.064;26.178;2022-07-21T11:26:58;26.40;59.70
64226;DHT22;50545;56.064;26.178;2022-07-21T11:29:25;26.60;57.90
64226;DHT22;50545;56.064;26.178;2022-07-21T11:31:53;26.80;56.70
64226;DHT22;50545;56.064;26.178;2022-07-21T11:34:21;27.00;56.70
64226;DHT22;50545;56.064;26.178;2022-07-21T11:36:58;27.10;56.30
64226;DHT22;50545;56.064;26.178;2022-07-21T11:39:46;27.00;55.00
64226;DHT22;50545;56.064;26.178;2022-07-21T11:42:14;26.90;57.80
64226;DHT22;50545;56.064;26.178;2022-07-21T11:44:43;27.10;54.70
64226;DHT22;50545;56.064;26.178;2022-07-21T11:47:13;27.30;57.40
64226;DHT22;50545;56.064;26.178;2022-07-21T11:49:42;27.50;57.00
64226;DHT22;50545;56.064;26.178;2022-07-21T11:52:15;27.50;52.30
64226;DHT22;50545;56.064;26.178;2022-07-21T11:54:49;27.50;53.40
64226;DHT22;50545;56.064;26.178;2022-07-21T11:57:19;27.60;55.40
64226;DHT22;50545;56.064;26.178;2022-07-21T11:59:48;27.70;53.10
64226;DHT22;50545;56.064;26.178;2022-07-21T12:02:21;27.70;51.40
64226;DHT22;50545;56.064;26.178;2022-07-21T12:05:03;27.70;53.20
64226;DHT22;50545;56.064;26.178;2022-07-21T12:07:38;27.60;51.60
64226;DHT22;50545;56.064;26.178;2022-07-21T12:10:21;27.70;55.80
64226;DHT22;50545;56.064;26.178;2022-07-21T12:12:49;27.60;54.40
64226;DHT22;50545;56.064;26.178;2022-07-21T12:15:23;27.60;55.80
64226;DHT22;50545;56.064;26.178;2022-07-21T12:17:56;27.70;58.10
64226;DHT22;50545;56.064;26.178;2022-07-21T12:20:31;27.70;55.90
64226;DHT22;50545;56.064;26.178;2022-07-21T12:23:01;27.90;55.10
64226;DHT22;50545;56.064;26.178;2022-07-21T12:25:37;27.90;53.50
64226;DHT22;50545;56.064;26.178;2022-07-21T12:28:06;27.70;53.20
64226;DHT22;50545;56.064;26.178;2022-07-21T12:30:38;27.70;55.20
64226;DHT22;50545;56.064;26.178;2022-07-21T12:33:21;27.80;53.80
64226;DHT22;50545;56.064;26.178;2022-07-21T12:36:01;28.10;54.80
64226;DHT22;50545;56.064;26.178;2022-07-21T12:38:46;28.20;52.50
64226;DHT22;50545;56.064;26.178;2022-07-21T12:41:16;28.10;52.30
64226;DHT22;50545;56.064;26.178;2022-07-21T12:43:57;28.10;52.30
64226;DHT22;50545;56.064;26.178;2022-07-21T12:46:31;28.10;55.30
64226;DHT22;50545;56.064;26.178;2022-07-21T12:49:08;28.20;54.10
64226;DHT22;50545;56.064;26.178;2022-07-21T12:51:39;28.20;52.50
64226;DHT22;50545;56.064;26.178;2022-07-21T12:54:09;28.30;55.50
64226;DHT22;50545;56.064;26.178;2022-07-21T12:56:37;28.60;53.00
64226;DHT22;50545;56.064;26.178;2022-07-21T12:59:04;28.60;52.10
64226;DHT22;50545;56.064;26.178;2022-07-21T13:01:33;28.50;52.60
64226;DHT22;50545;56.064;26.178;2022-07-21T13:04:03;28.80;53.40
64226;DHT22;50545;56.064;26.178;2022-07-21T13:06:30;28.90;51.20
64226;DHT22;50545;56.064;26.178;2022-07-21T13:08:57;29.10;52.40
64226;DHT22;50545;56.064;26.178;2022-07-21T13:11:25;29.30;53.10
64226;DHT22;50545;56.064;26.178;2022-07-21T13:13:53;29.30;50.80
64226;DHT22;50545;56.064;26.178;2022-07-21T13:16:20;29.30;49.90
64226;DHT22;50545;56.064;26.178;2022-07-21T13:18:50;29.30;51.80
64226;DHT22;50545;56.064;26.178;2022-07-21T13:21:19;29.50;51.60
64226;DHT22;50545;56.064;26.178;2022-07-21T13:23:46;29.60;50.70
64226;DHT22;50545;56.064;26.178;2022-07-21T13:26:13;29.70;51.50
64226;DHT22;50545;56.064;26.178;2022-07-21T13:28:40;29.80;49.70
64226;DHT22;50545;56.064;26.178;2022-07-21T13:31:08;29.70;51.20
64226;DHT22;50545;56.064;26.178;2022-07-21T13:33:38;29.90;50.90
64226;DHT22;50545;56.064;26.178;2022-07-21T13:36:08;30.00;50.70
64226;DHT22;50545;56.064;26.178;2022-07-21T13:38:36;29.90;49.20
64226;DHT22;50545;56.064;26.178;2022-07-21T13:41:05;29.70;52.30
64226;DHT22;50545;56.064;26.178;2022-07-21T13:43:53;29.60;49.40
64226;DHT22;50545;56.064;26.178;2022-07-21T13:46:21;29.50;49.80
64226;DHT22;50545;56.064;26.178;2022-07-21T13:48:48;29.60;50.10
64226;DHT22;50545;56.064;26.178;2022-07-21T13:51:17;29.70;52.50
64226;DHT22;50545;56.064;26.178;2022-07-21T13:53:46;29.90;50.50
64226;DHT22;50545;56.064;26.178;2022-07-21T13:56:14;29.60;50.60
64226;DHT22;50545;56.064;26.178;2022-07-21T13:58:42;29.50;51.60
64226;DHT22;50545;56.064;26.178;2022-07-21T14:01:11;29.30;51.90
64226;DHT22;50545;56.064;26.178;2022-07-21T14:03:39;29.40;52.30
64226;DHT22;50545;56.064;26.178;2022-07-21T14:06:07;29.40;52.60
64226;DHT22;50545;56.064;26.178;2022-07-21T14:08:34;29.40;51.50
64226;DHT22;50545;56.064;26.178;2022-07-21T14:11:02;29.40;51.80
64226;DHT22;50545;56.064;26.178;2022-07-21T14:13:30;29.40;52.20
64226;DHT22;50545;56.064;26.178;2022-07-21T14:15:57;29.80;53.70
64226;DHT22;50545;56.064;26.178;2022-07-21T14:18:24;30.40;52.20
64226;DHT22;50545;56.064;26.178;2022-07-21T14:20:52;31.00;51.10
64226;DHT22;50545;56.064;26.178;2022-07-21T14:23:20;31.30;48.90
64226;DHT22;50545;56.064;26.178;2022-07-21T14:25:50;31.20;49.90
64226;DHT22;50545;56.064;26.178;2022-07-21T14:28:18;30.90;50.60
64226;DHT22;50545;56.064;26.178;2022-07-21T14:30:46;30.90;50.80
64226;DHT22;50545;56.064;26.178;2022-07-21T14:33:13;30.80;48.70
64226;DHT22;50545;56.064;26.178;2022-07-21T14:35:40;30.80;50.20
64226;DHT22;50545;56.064;26.178;2022-07-21T14:38:08;30.80;49.00
64226;DHT22;50545;56.064;26.178;2022-07-21T14:40:35;30.90;50.20
64226;DHT22;50545;56.064;26.178;2022-07-21T14:43:04;30.80;48.60
64226;DHT22;50545;56.064;26.178;2022-07-21T14:45:31;30.60;49.40
64226;DHT22;50545;56.064;26.178;2022-07-21T14:47:58;30.40;50.60
64226;DHT22;50545;56.064;26.178;2022-07-21T14:50:27;30.30;49.90
64226;DHT22;50545;56.064;26.178;2022-07-21T14:52:56;30.20;50.70
64226;DHT22;50545;56.064;26.178;2022-07-21T14:55:25;30.40;51.00
64226;DHT22;50545;56.064;26.178;2022-07-21T14:57:53;30.70;52.30
64226;DHT22;50545;56.064;26.178;2022-07-21T15:00:21;30.80;49.80
64226;DHT22;50545;56.064;26.178;2022-07-21T15:02:52;30.90;52.20
64226;DHT22;50545;56.064;26.178;2022-07-21T15:05:20;31.00;50.60
64226;DHT22;50545;56.064;26.178;2022-07-21T15:07:47;31.30;48.80
64226;DHT22;50545;56.064;26.178;2022-07-21T15:10:15;31.30;49.80
64226;DHT22;50545;56.064;26.178;2022-07-21T15:12:42;31.30;48.50
64226;DHT22;50545;56.064;26.178;2022-07-21T15:15:10;31.20;49.00
64226;DHT22;50545;56.064;26.178;2022-07-21T15:17:37;31.00;49.90
64226;DHT22;50545;56.064;26.178;2022-07-21T15:20:05;30.80;48.90
64226;DHT22;50545;56.064;26.178;2022-07-21T15:22:39;30.50;49.70
64226;DHT22;50545;56.064;26.178;2022-07-21T15:25:08;30.60;50.30
64226;DHT22;50545;56.064;26.178;2022-07-21T15:27:42;30.50;49.40
64226;DHT22;50545;56.064;26.178;2022-07-21T15:30:12;30.50;48.70
64226;DHT22;50545;56.064;26.178;2022-07-21T15:32:40;30.40;48.90
64226;DHT22;50545;56.064;26.178;2022-07-21T15:35:09;30.20;49.10
64226;DHT22;50545;56.064;26.178;2022-07-21T15:37:37;29.90;51.10
64226;DHT22;50545;56.064;26.178;2022-07-21T15:40:06;29.90;51.70
64226;DHT22;50545;56.064;26.178;2022-07-21T15:42:34;30.00;50.60
64226;DHT22;50545;56.064;26.178;2022-07-21T15:45:04;30.00;50.50
64226;DHT22;50545;56.064;26.178;2022-07-21T15:47:31;29.80;50.00
64226;DHT22;50545;56.064;26.178;2022-07-21T15:49:59;29.80;51.10
64226;DHT22;50545;56.064;26.178;2022-07-21T15:52:26;30.00;50.60
64226;DHT22;50545;56.064;26.178;2022-07-21T15:54:55;29.90;49.80